Terminal Aerodrome Forecast
Issued by NWS

Home | Current Version | Previous Version | Text Only | Print | Product List | Glossary On
Versions: 1 2 3 4 5 6 7 8 9 10 11 12 13 14 15 16 17 18 19 20
137
FTUS41 KGYX 051141 AAA
TAFAUG
TAF AMD
KAUG 051141Z 0512/0612 00000KT P6SM SKC
     FM051400 VRB03KT P6SM BKN050 OVC100
     FM051600 VRB04KT 2SM -SN BR OVC020
     FM051900 03004KT 1 1/2SM -SN BR OVC012
     FM052300 35005KT P6SM BKN050
     FM060500 34005KT P6SM SKC=

USA.gov is the U.S. government's official web portal to all federal, state and local government web resources and services.